TimeEDT,TemperatureF,Dew PointF,Humidity,Sea Level PressureIn,VisibilityMPH,Wind Direction,Wind SpeedMPH,Gust SpeedMPH,PrecipitationIn,Events,Conditions,WindDirDegrees,DateUTC
12:11 AM,55.4,53.6,94,30.26,4.0,SE,11.5,-,0.01,Rain,Light Rain,140,2013-05-20 04:11:00
12:25 AM,55.4,53.6,94,30.25,4.0,SSE,12.7,-,0.01,Rain,Light Rain,150,2013-05-20 04:25:00
12:53 AM,55.0,53.1,93,30.24,5.0,SSE,10.4,-,0.02,Rain,Light Rain,150,2013-05-20 04:53:00
1:13 AM,55.4,53.6,94,30.22,4.0,SSE,12.7,-,0.02,Rain,Light Rain,150,2013-05-20 05:13:00
1:41 AM,55.4,53.6,94,30.21,2.0,SSE,13.8,-,0.05,Rain,Light Rain,160,2013-05-20 05:41:00
1:53 AM,55.9,54.0,93,30.20,2.5,SSE,13.8,-,0.06,Rain,Light Rain,160,2013-05-20 05:53:00
2:03 AM,55.4,53.6,94,30.20,3.0,SSE,12.7,-,0.00,Rain,Light Rain,160,2013-05-20 06:03:00
2:17 AM,55.4,53.6,94,30.19,2.0,SSE,13.8,-,0.03,Rain,Light Rain,160,2013-05-20 06:17:00
2:28 AM,55.4,53.6,94,30.18,3.0,SSE,15.0,-,0.04,Rain,Light Rain,160,2013-05-20 06:28:00
2:37 AM,55.4,53.6,94,30.18,2.5,SSE,12.7,-,0.05,Rain,Light Rain,160,2013-05-20 06:37:00
2:44 AM,55.4,53.6,94,30.18,4.0,South,13.8,-,0.05,Rain,Light Rain,170,2013-05-20 06:44:00
2:53 AM,55.9,54.0,93,30.18,3.0,SSE,11.5,-,0.07,Rain,Rain,160,2013-05-20 06:53:00
3:00 AM,55.4,53.6,94,30.17,2.5,SSE,11.5,-,0.01,Rain,Light Rain,160,2013-05-20 07:00:00
3:07 AM,55.4,53.6,94,30.17,3.0,SSE,11.5,-,0.02,Rain,Light Rain,160,2013-05-20 07:07:00
3:53 AM,57.0,54.0,89,30.14,5.0,SSE,11.5,19.6,0.04,Rain,Light Rain,160,2013-05-20 07:53:00
4:41 AM,55.4,53.6,94,30.13,2.5,SSE,9.2,-,0.05,Rain,Light Rain,160,2013-05-20 08:41:00
4:48 AM,57.2,53.6,88,30.12,4.0,SSE,11.5,-,0.06,Rain,Light Rain,150,2013-05-20 08:48:00
4:53 AM,57.0,54.0,89,30.12,4.0,SSE,11.5,-,0.06,Rain,Light Rain,160,2013-05-20 08:53:00
5:53 AM,57.0,55.0,93,30.12,7.0,South,9.2,-,0.00,,Overcast,190,2013-05-20 09:53:00
6:18 AM,57.2,55.4,94,30.11,2.5,SSW,9.2,-,N/A,,Overcast,200,2013-05-20 10:18:00
6:53 AM,57.0,54.0,89,30.11,2.0,SSW,6.9,-,0.01,Rain,Light Rain,210,2013-05-20 10:53:00
7:17 AM,57.2,55.4,94,30.11,2.0,SW,11.5,-,0.01,Rain,Light Rain,220,2013-05-20 11:17:00
7:46 AM,57.2,55.4,94,30.11,1.8,SSW,11.5,-,0.01,,Overcast,210,2013-05-20 11:46:00
7:53 AM,57.0,55.0,93,30.11,1.8,SSW,11.5,-,0.01,,Overcast,210,2013-05-20 11:53:00
8:00 AM,57.2,55.4,94,30.11,2.0,SW,10.4,-,N/A,,Overcast,220,2013-05-20 12:00:00
8:09 AM,57.2,55.4,94,30.11,1.5,SW,9.2,-,N/A,,Overcast,220,2013-05-20 12:09:00
8:32 AM,57.2,55.4,94,30.10,0.8,SSW,11.5,-,N/A,,Mist,210,2013-05-20 12:32:00
8:53 AM,57.0,55.0,93,30.09,0.5,SSW,11.5,-,N/A,Fog,Fog,210,2013-05-20 12:53:00
8:58 AM,57.2,55.4,94,30.09,0.2,SSW,9.2,-,N/A,Fog,Fog,210,2013-05-20 12:58:00
9:23 AM,57.2,55.4,94,30.09,0.2,SW,9.2,-,N/A,Fog,Fog,220,2013-05-20 13:23:00
9:53 AM,57.9,55.9,93,30.09,0.2,SW,9.2,-,N/A,Fog,Fog,230,2013-05-20 13:53:00
10:51 AM,59.0,57.2,94,30.07,0.5,WSW,10.4,-,N/A,Fog,Fog,250,2013-05-20 14:51:00
10:53 AM,60.1,57.0,90,30.07,0.5,WSW,10.4,-,N/A,Fog,Fog,250,2013-05-20 14:53:00
11:53 AM,59.0,57.0,93,30.06,0.2,SW,9.2,-,N/A,Fog,Fog,230,2013-05-20 15:53:00
12:10 PM,60.8,57.2,88,30.04,1.0,WSW,15.0,20.7,N/A,,Mist,240,2013-05-20 16:10:00
12:17 PM,60.8,57.2,88,30.04,0.8,SW,13.8,-,N/A,,Mist,230,2013-05-20 16:17:00
12:53 PM,61.0,55.9,83,30.03,0.8,WSW,17.3,-,N/A,,Haze,240,2013-05-20 16:53:00
1:53 PM,61.0,57.0,87,30.01,0.8,WSW,19.6,25.3,N/A,,Overcast,250,2013-05-20 17:53:00
2:53 PM,61.0,55.9,83,30.00,0.5,WSW,18.4,24.2,N/A,,Mist,240,2013-05-20 18:53:00
3:36 PM,59.0,55.4,88,29.98,0.2,SW,16.1,-,N/A,Fog,Fog,230,2013-05-20 19:36:00
3:43 PM,59.0,55.4,88,29.98,0.2,SW,17.3,-,N/A,Fog,Fog,230,2013-05-20 19:43:00
3:53 PM,59.0,55.9,90,29.99,0.2,WSW,17.3,-,N/A,Fog,Fog,240,2013-05-20 19:53:00
4:06 PM,60.8,55.4,82,29.99,1.0,West,13.8,23.0,N/A,,Mist,260,2013-05-20 20:06:00
4:17 PM,60.8,57.2,88,29.99,0.5,West,13.8,-,N/A,Fog,Fog,260,2013-05-20 20:17:00
4:53 PM,60.1,55.9,86,29.99,2.0,WSW,15.0,-,N/A,,Overcast,250,2013-05-20 20:53:00
5:26 PM,57.2,55.4,94,29.98,0.5,WSW,15.0,-,N/A,Fog,Fog,240,2013-05-20 21:26:00
5:53 PM,57.9,55.0,90,29.98,0.5,WSW,13.8,-,N/A,Fog,Fog,240,2013-05-20 21:53:00
6:50 PM,57.2,55.4,94,29.97,0.2,WSW,15.0,-,N/A,Fog,Fog,250,2013-05-20 22:50:00
6:53 PM,57.0,55.0,93,29.97,0.2,WSW,17.3,23.0,N/A,Fog,Fog,250,2013-05-20 22:53:00
7:01 PM,57.2,55.4,94,29.97,0.2,WSW,12.7,23.0,N/A,Fog,Fog,250,2013-05-20 23:01:00
7:11 PM,57.2,55.4,94,29.98,0.5,WSW,13.8,-,N/A,Fog,Fog,250,2013-05-20 23:11:00
7:26 PM,57.2,53.6,88,29.98,0.2,WSW,12.7,-,N/A,Fog,Fog,240,2013-05-20 23:26:00
7:39 PM,57.2,53.6,88,29.98,0.5,WSW,13.8,-,N/A,Fog,Fog,250,2013-05-20 23:39:00
7:46 PM,57.2,53.6,88,29.98,0.2,WSW,15.0,-,N/A,Fog,Fog,250,2013-05-20 23:46:00
7:53 PM,57.0,55.0,93,29.99,0.2,WSW,12.7,-,N/A,Fog,Fog,250,2013-05-20 23:53:00
8:01 PM,57.2,55.4,94,29.98,0.2,WSW,13.8,-,N/A,Fog,Fog,250,2013-05-21 00:01:00
8:20 PM,57.2,55.4,94,29.98,0.5,WSW,12.7,-,N/A,Fog,Fog,240,2013-05-21 00:20:00
8:30 PM,57.2,55.4,94,29.98,0.2,WSW,16.1,-,N/A,Fog,Fog,240,2013-05-21 00:30:00
8:50 PM,57.2,55.4,94,29.98,0.2,WSW,15.0,-,N/A,Fog,Fog,240,2013-05-21 00:50:00
8:53 PM,57.0,55.0,93,29.99,0.2,WSW,13.8,-,N/A,Fog,Fog,240,2013-05-21 00:53:00
9:14 PM,57.2,53.6,88,29.99,0.2,WSW,13.8,-,N/A,Fog,Fog,240,2013-05-21 01:14:00
9:28 PM,57.2,55.4,94,29.99,0.2,WSW,15.0,-,N/A,Fog,Fog,240,2013-05-21 01:28:00
9:37 PM,57.2,55.4,94,30.00,0.5,WSW,12.7,-,N/A,Fog,Fog,250,2013-05-21 01:37:00
10:21 PM,57.2,55.4,94,30.00,0.2,WSW,12.7,-,N/A,Fog,Fog,250,2013-05-21 02:21:00
10:31 PM,57.2,55.4,94,29.99,0.2,WSW,13.8,-,N/A,Fog,Fog,240,2013-05-21 02:31:00
10:44 PM,57.2,55.4,94,29.98,0.2,WSW,12.7,-,N/A,Fog,Fog,240,2013-05-21 02:44:00
10:53 PM,57.0,55.0,93,29.99,0.2,WSW,11.5,-,N/A,Fog,Fog,250,2013-05-21 02:53:00
11:09 PM,57.2,55.4,94,29.99,0.2,WSW,13.8,-,N/A,Fog,Fog,250,2013-05-21 03:09:00
11:25 PM,57.2,55.4,94,29.99,0.5,West,11.5,-,N/A,Fog,Fog,270,2013-05-21 03:25:00
11:33 PM,57.2,55.4,94,30.00,0.2,WNW,11.5,-,N/A,Fog,Fog,290,2013-05-21 03:33:00
11:53 PM,57.0,55.0,93,29.99,0.2,West,6.9,-,N/A,Fog,Fog,280,2013-05-21 03:53:00